Balfour, Canada
Current Conditions -  °F | °C
As of 9:00 PM on Tuesday 21 Oct 2014 (Local Time) from CYCG Reporting Station
Broken Clouds Broken Clouds  
Wind Chill: 52°   Ceiling: 8000
Heat Index: 52°   Visibility: 15mi
Dew Point: 46°   Wind: 7mph
Humidity: 82%   Direction: 160°SSE
Pressure: 29.94"   Gusts: NA
Location:  49.63°N, 116.97°W
Report Text: CYCG 220400Z 16006KT 15SM FEW040 BKN080 11/08 A2994 RMK SC2AC5 INTMT -RA LAST OBS/NEXT 221300UTC SLP142
Loading
Personal Weather Stations






























Interactive Weather Map
Tropical Storm Tracking
New forecast layout! Learn more

10-Day Weather Forecast

Advertisements
Track Severe Weather on mobile